X  Close Metar Aviation Weather Data     LIPX Verona-Villafranca Valerio Catullo Airport
Temperature
11°C Temperature
9°C Dewpoint
88% Humidity



Wind
14 MPH
23 KM/H
6 M/S
12 KTS



70°
ENE
Current Conditions

Light Rain Light Rain
Pressure 1007.79 (hPa) - 29.76 (inHg)
Visibility 5 (mile) - 8 (km)
Airport
Airport-code LIPX

Location: Verona-Villafranca Valerio Catullo Airport
Distance: 0 (mi)

Metar:
LIPX 271220Z 07012KT 8000 -RA BKN025 11/09 Q1008

Time: 27-02-2024 12:20 CET